createdAt,value
2023-01-27T00:00:39.390Z,2.10
2023-01-27T00:03:06.792Z,2.17
2023-01-27T00:05:33.899Z,2.43
2023-01-27T00:08:00.794Z,2.50
2023-01-27T00:10:27.669Z,2.20
2023-01-27T00:13:13.505Z,2.50
2023-01-27T00:15:40.697Z,1.70
2023-01-27T00:18:08.037Z,2.23
2023-01-27T00:20:53.554Z,2.20
2023-01-27T00:23:44.671Z,2.17
2023-01-27T00:26:16.811Z,2.00
2023-01-27T00:28:45.458Z,2.00
2023-01-27T00:31:33.158Z,2.13
2023-01-27T00:34:08.938Z,2.17
2023-01-27T00:36:38.242Z,2.30
2023-01-27T00:39:06.748Z,2.00
2023-01-27T00:41:34.119Z,2.10
2023-01-27T00:44:01.995Z,2.30
2023-01-27T00:46:29.358Z,2.13
2023-01-27T00:48:57.012Z,2.30
2023-01-27T00:51:24.210Z,2.00
2023-01-27T00:53:51.234Z,2.20
2023-01-27T00:56:18.549Z,2.30
2023-01-27T00:58:45.440Z,2.90
2023-01-27T01:01:15.510Z,3.60
2023-01-27T01:03:42.777Z,3.23
2023-01-27T01:06:12.400Z,3.17
2023-01-27T01:08:39.306Z,2.80
2023-01-27T01:11:08.186Z,2.03
2023-01-27T01:13:35.444Z,2.23
2023-01-27T01:16:06.972Z,2.50
2023-01-27T01:18:33.939Z,2.20
2023-01-27T01:21:00.998Z,2.10
2023-01-27T01:23:28.043Z,1.80
2023-01-27T01:25:56.577Z,1.70
2023-01-27T01:28:24.674Z,1.70
2023-01-27T01:30:52.018Z,1.60
2023-01-27T01:33:18.956Z,2.10
2023-01-27T01:35:45.883Z,1.70
2023-01-27T01:38:13.009Z,1.90
2023-01-27T01:40:44.617Z,2.37
2023-01-27T01:43:14.687Z,1.70
2023-01-27T01:45:48.002Z,2.00
2023-01-27T01:48:42.486Z,1.80
2023-01-27T01:51:13.540Z,2.00
2023-01-27T01:54:04.500Z,1.80
2023-01-27T01:56:40.971Z,2.10
2023-01-27T01:59:15.373Z,2.03
2023-01-27T02:01:42.257Z,1.67
2023-01-27T02:04:14.990Z,1.90
2023-01-27T02:06:52.540Z,1.50
2023-01-27T02:09:20.939Z,1.60
2023-01-27T02:11:48.140Z,1.53
2023-01-27T02:14:17.136Z,1.80
2023-01-27T02:16:44.829Z,1.93
2023-01-27T02:19:21.417Z,1.53
2023-01-27T02:21:51.097Z,1.93
2023-01-27T02:24:19.494Z,2.87
2023-01-27T02:26:46.571Z,2.83
2023-01-27T02:29:15.677Z,2.93
2023-01-27T02:31:42.923Z,3.70
2023-01-27T02:34:14.959Z,4.87
2023-01-27T02:36:55.677Z,3.17
2023-01-27T02:39:30.009Z,3.30
2023-01-27T02:41:57.913Z,2.67
2023-01-27T02:44:25.066Z,4.30
2023-01-27T02:46:51.991Z,3.00
2023-01-27T02:49:18.952Z,2.73
2023-01-27T02:51:46.035Z,2.03
2023-01-27T02:54:12.964Z,1.73
2023-01-27T02:56:39.991Z,2.67
2023-01-27T02:59:06.914Z,2.73
2023-01-27T03:01:33.945Z,1.90
2023-01-27T03:04:02.059Z,1.90
2023-01-27T03:06:29.154Z,2.37
2023-01-27T03:08:56.071Z,1.70
2023-01-27T03:11:41.277Z,1.80
2023-01-27T03:14:09.475Z,1.83
2023-01-27T03:16:55.087Z,1.80
2023-01-27T03:19:21.987Z,1.90
2023-01-27T03:21:51.154Z,1.77
2023-01-27T03:24:18.788Z,1.90
2023-01-27T03:26:46.539Z,1.90
2023-01-27T03:29:58.611Z,1.80
2023-01-27T03:32:27.781Z,2.90
2023-01-27T03:34:58.498Z,2.50
2023-01-27T03:37:44.357Z,2.17
2023-01-27T03:40:31.385Z,2.50
2023-01-27T03:43:17.214Z,1.87
2023-01-27T03:46:09.773Z,2.50
2023-01-27T03:48:37.123Z,2.30
2023-01-27T03:51:07.267Z,2.20
2023-01-27T03:53:35.098Z,2.50
2023-01-27T03:56:02.500Z,2.70
2023-01-27T03:58:31.678Z,2.17
2023-01-27T04:01:03.994Z,2.10
2023-01-27T04:03:52.465Z,2.17
2023-01-27T04:06:43.956Z,2.10
2023-01-27T04:09:12.432Z,2.00
2023-01-27T04:11:58.047Z,2.30
2023-01-27T04:14:28.928Z,2.40
2023-01-27T04:17:01.253Z,2.33
2023-01-27T04:19:28.515Z,1.87
2023-01-27T04:21:56.590Z,2.10
2023-01-27T04:24:24.124Z,2.13
2023-01-27T04:27:06.112Z,2.20
2023-01-27T04:29:35.895Z,2.17
2023-01-27T04:32:06.004Z,1.90
2023-01-27T04:34:33.124Z,2.00
2023-01-27T04:37:00.617Z,2.23
2023-01-27T04:39:27.545Z,2.33
2023-01-27T04:41:56.256Z,2.40
2023-01-27T04:44:23.776Z,2.10
2023-01-27T04:46:51.013Z,2.20
2023-01-27T04:49:18.409Z,2.40
2023-01-27T04:51:47.209Z,1.90
2023-01-27T04:54:14.399Z,1.93
2023-01-27T04:56:53.366Z,2.80
2023-01-27T04:59:20.385Z,2.20
2023-01-27T05:01:47.329Z,2.27
2023-01-27T05:04:14.254Z,2.57
2023-01-27T05:06:41.385Z,2.10
2023-01-27T05:09:08.312Z,2.00
2023-01-27T05:11:35.194Z,2.20
2023-01-27T05:14:02.214Z,2.00
2023-01-27T05:16:29.411Z,2.17
2023-01-27T05:18:56.749Z,2.07
2023-01-27T05:21:30.895Z,2.40
2023-01-27T05:23:58.031Z,2.23
2023-01-27T05:26:28.189Z,2.73
2023-01-27T05:28:57.519Z,2.90
2023-01-27T05:31:27.736Z,2.10
2023-01-27T05:33:56.455Z,2.40
2023-01-27T05:36:25.373Z,6.03
2023-01-27T05:38:54.088Z,3.77
2023-01-27T05:41:21.962Z,5.07
2023-01-27T05:43:53.236Z,4.40
2023-01-27T05:46:22.755Z,5.17
2023-01-27T05:48:56.319Z,3.97
2023-01-27T05:51:25.630Z,3.50
2023-01-27T05:53:54.965Z,3.30
2023-01-27T05:56:22.940Z,3.10
2023-01-27T05:58:49.915Z,3.43
2023-01-27T06:01:23.647Z,4.00
2023-01-27T06:03:50.877Z,6.97
2023-01-27T06:06:19.894Z,8.53
2023-01-27T06:08:47.761Z,7.10
2023-01-27T06:11:20.164Z,4.87
2023-01-27T06:13:51.286Z,3.93
2023-01-27T06:16:20.103Z,3.57
2023-01-27T06:18:48.073Z,3.80
2023-01-27T06:21:16.356Z,3.87
2023-01-27T06:23:43.388Z,4.03
2023-01-27T06:26:13.243Z,4.23
2023-01-27T06:28:40.160Z,4.00
2023-01-27T06:31:16.231Z,3.40
2023-01-27T06:33:43.509Z,3.57
2023-01-27T06:36:16.129Z,3.97
2023-01-27T06:38:44.753Z,3.23
2023-01-27T06:41:19.643Z,3.40
2023-01-27T06:43:46.725Z,3.90
2023-01-27T06:46:14.950Z,4.00
2023-01-27T06:48:41.983Z,3.30
2023-01-27T06:51:09.289Z,4.03
2023-01-27T06:53:37.531Z,5.10
2023-01-27T06:56:05.109Z,4.43
2023-01-27T06:58:33.009Z,4.70
2023-01-27T07:01:00.308Z,4.80
2023-01-27T07:03:27.234Z,4.30
2023-01-27T07:05:54.315Z,4.27
2023-01-27T07:08:21.470Z,4.23
2023-01-27T07:10:48.415Z,4.30
2023-01-27T07:13:15.623Z,4.50
2023-01-27T07:15:42.981Z,3.93
2023-01-27T07:18:11.271Z,3.80
2023-01-27T07:20:38.371Z,3.60
2023-01-27T07:23:05.758Z,3.40
2023-01-27T07:25:34.474Z,4.63
2023-01-27T07:28:02.822Z,3.40
2023-01-27T07:30:30.482Z,4.30
2023-01-27T07:33:07.905Z,4.30
2023-01-27T07:35:35.907Z,3.73
2023-01-27T07:38:03.567Z,4.37
2023-01-27T07:40:30.524Z,3.70
2023-01-27T07:43:01.740Z,3.63
2023-01-27T07:45:29.790Z,3.40
2023-01-27T07:48:01.412Z,3.93
2023-01-27T07:50:28.630Z,4.43
2023-01-27T07:53:00.090Z,3.57
2023-01-27T07:55:27.155Z,3.97
2023-01-27T07:57:54.518Z,4.00
2023-01-27T08:00:23.269Z,3.70
2023-01-27T08:02:54.460Z,4.33
2023-01-27T08:05:22.785Z,3.43
2023-01-27T08:07:51.039Z,4.90
2023-01-27T08:10:18.853Z,3.73
2023-01-27T08:12:48.872Z,4.40
2023-01-27T08:15:18.719Z,4.33
2023-01-27T08:17:55.838Z,4.33
2023-01-27T08:20:24.343Z,4.00
2023-01-27T08:22:54.651Z,3.70
2023-01-27T08:25:22.231Z,4.07
2023-01-27T08:27:58.539Z,4.27
2023-01-27T08:30:25.519Z,3.93
2023-01-27T08:32:52.711Z,3.90
2023-01-27T08:35:24.713Z,4.00
2023-01-27T08:37:51.752Z,4.10
2023-01-27T08:40:19.050Z,4.40
2023-01-27T08:42:45.977Z,3.77
2023-01-27T08:45:12.924Z,4.67
2023-01-27T08:47:39.862Z,4.23
2023-01-27T08:50:08.009Z,3.97
2023-01-27T08:52:35.182Z,3.97
2023-01-27T08:55:02.165Z,4.53
2023-01-27T08:57:36.952Z,4.63
2023-01-27T09:00:06.545Z,4.00
2023-01-27T09:02:33.590Z,4.00
2023-01-27T09:05:00.636Z,4.40
2023-01-27T09:07:27.633Z,4.17
2023-01-27T09:10:12.724Z,3.90
2023-01-27T09:12:44.381Z,3.97
2023-01-27T09:15:13.440Z,3.97
2023-01-27T09:17:42.891Z,4.47
2023-01-27T09:20:11.007Z,3.60
2023-01-27T09:22:41.757Z,4.70
2023-01-27T09:25:14.031Z,3.90
2023-01-27T09:27:44.335Z,4.20
2023-01-27T09:30:14.001Z,4.00
2023-01-27T09:32:44.396Z,3.50
2023-01-27T09:35:11.859Z,3.53
2023-01-27T09:37:51.564Z,3.30
2023-01-27T09:41:07.789Z,3.00
2023-01-27T09:43:43.563Z,2.50
2023-01-27T09:46:44.939Z,2.63
2023-01-27T09:49:14.813Z,2.40
2023-01-27T09:52:13.837Z,2.80
2023-01-27T09:54:58.552Z,2.80
2023-01-27T09:57:34.839Z,2.50
2023-01-27T10:00:56.179Z,2.70
2023-01-27T10:03:26.110Z,2.77
2023-01-27T10:06:22.542Z,3.20
2023-01-27T10:09:10.783Z,3.00
2023-01-27T10:12:00.178Z,2.90
2023-01-27T10:14:58.517Z,3.03
2023-01-27T10:18:09.314Z,3.50
2023-01-27T10:20:48.052Z,2.60
2023-01-27T10:23:43.647Z,2.63
2023-01-27T10:26:35.470Z,2.40
2023-01-27T10:29:30.347Z,2.00
2023-01-27T10:32:08.052Z,2.20
2023-01-27T10:34:37.770Z,2.10
2023-01-27T10:37:28.224Z,1.90
2023-01-27T10:40:04.935Z,1.80
2023-01-27T10:42:54.960Z,1.60
2023-01-27T10:45:35.879Z,1.60
2023-01-27T10:48:21.334Z,1.50
2023-01-27T10:50:59.260Z,1.30
2023-01-27T10:53:40.070Z,1.20
2023-01-27T10:56:16.698Z,1.40
2023-01-27T10:59:03.007Z,1.30
2023-01-27T11:01:35.218Z,1.60
2023-01-27T11:04:21.479Z,1.47
2023-01-27T11:06:50.041Z,1.40
2023-01-27T11:09:31.329Z,1.50
2023-01-27T11:12:04.065Z,1.50
2023-01-27T11:14:38.874Z,1.53
2023-01-27T11:17:28.589Z,1.07
2023-01-27T11:19:58.873Z,1.23
2023-01-27T11:22:36.582Z,1.20
2023-01-27T11:25:16.524Z,1.30
2023-01-27T11:28:01.026Z,1.10
2023-01-27T11:30:36.658Z,1.10
2023-01-27T11:33:33.200Z,1.20
2023-01-27T11:36:00.204Z,1.10
2023-01-27T11:38:27.109Z,1.17
2023-01-27T11:40:54.678Z,1.30
2023-01-27T11:43:25.855Z,1.33
2023-01-27T11:46:00.623Z,1.20
2023-01-27T11:48:37.027Z,1.17
2023-01-27T11:51:04.467Z,1.10
2023-01-27T11:53:41.024Z,1.17
2023-01-27T11:56:18.114Z,1.30
2023-01-27T11:59:09.141Z,1.27
2023-01-27T12:02:14.846Z,1.87
2023-01-27T12:04:49.139Z,1.40
2023-01-27T12:07:27.749Z,1.30
2023-01-27T12:09:54.756Z,7.13
2023-01-27T12:12:28.805Z,2.13
2023-01-27T12:14:58.763Z,1.50
2023-01-27T12:17:38.822Z,1.47
2023-01-27T12:20:24.361Z,1.23
2023-01-27T12:22:55.839Z,3.20
2023-01-27T12:25:28.927Z,2.87
2023-01-27T12:28:04.938Z,2.10
2023-01-27T12:30:39.093Z,1.60
2023-01-27T12:33:22.271Z,1.70
2023-01-27T12:35:50.542Z,2.57
2023-01-27T12:38:21.495Z,1.37
2023-01-27T12:41:09.701Z,0.87
2023-01-27T12:44:00.327Z,0.90
2023-01-27T12:47:13.125Z,0.90
2023-01-27T12:50:30.121Z,1.00
2023-01-27T12:53:27.770Z,1.30
2023-01-27T12:56:17.633Z,1.20
2023-01-27T12:58:58.905Z,1.63
2023-01-27T13:01:31.548Z,2.00
2023-01-27T13:04:03.501Z,1.30
2023-01-27T13:06:53.233Z,1.00
2023-01-27T13:09:40.043Z,1.13
2023-01-27T13:12:20.710Z,1.10
2023-01-27T13:15:05.772Z,0.97
2023-01-27T13:17:43.328Z,0.70
2023-01-27T13:20:25.260Z,0.67
2023-01-27T13:23:07.671Z,0.70
2023-01-27T13:25:42.351Z,0.60
2023-01-27T13:28:19.578Z,0.60
2023-01-27T13:30:52.462Z,0.80
2023-01-27T13:33:34.422Z,0.60
2023-01-27T13:36:33.935Z,1.00
2023-01-27T13:39:03.884Z,0.70
2023-01-27T13:41:45.828Z,0.60
2023-01-27T13:44:47.897Z,0.87
2023-01-27T13:47:25.145Z,0.60
2023-01-27T13:50:00.338Z,0.50
2023-01-27T13:52:28.195Z,0.60
2023-01-27T13:54:55.513Z,0.60
2023-01-27T13:57:47.863Z,1.23
2023-01-27T14:00:27.296Z,0.60
2023-01-27T14:03:12.870Z,0.50
2023-01-27T14:06:06.552Z,0.60
2023-01-27T14:08:55.434Z,0.60
2023-01-27T14:11:42.949Z,0.50
2023-01-27T14:14:20.543Z,0.63
2023-01-27T14:17:03.843Z,0.60
2023-01-27T14:19:55.850Z,0.70
2023-01-27T14:22:42.718Z,0.57
2023-01-27T14:25:12.689Z,0.70
2023-01-27T14:27:47.284Z,0.80
2023-01-27T14:30:31.943Z,1.07
2023-01-27T14:33:12.195Z,0.90
2023-01-27T14:35:49.429Z,0.90
2023-01-27T14:38:41.122Z,0.60
2023-01-27T14:41:27.458Z,0.70
2023-01-27T14:44:13.842Z,0.50
2023-01-27T14:47:10.403Z,0.50
2023-01-27T14:50:13.826Z,0.70
2023-01-27T14:53:15.144Z,0.90
2023-01-27T14:56:12.815Z,1.00
2023-01-27T14:58:52.995Z,1.20
2023-01-27T15:01:44.524Z,1.97
2023-01-27T15:04:23.765Z,0.93
2023-01-27T15:07:07.829Z,0.97
2023-01-27T15:09:54.233Z,0.70
2023-01-27T15:12:55.185Z,0.90
2023-01-27T15:15:56.143Z,0.60
2023-01-27T15:19:06.561Z,0.60
2023-01-27T15:21:53.707Z,0.50
2023-01-27T15:24:36.946Z,0.40
2023-01-27T15:27:08.736Z,0.60
2023-01-27T15:29:37.332Z,1.43
2023-01-27T15:32:34.216Z,0.80
2023-01-27T15:35:34.590Z,1.53
2023-01-27T15:38:10.583Z,1.30
2023-01-27T15:40:56.413Z,0.80
2023-01-27T15:43:25.504Z,0.90
2023-01-27T15:45:56.732Z,1.00
2023-01-27T15:48:32.977Z,2.10
2023-01-27T15:51:04.769Z,1.20
2023-01-27T15:53:38.958Z,0.90
2023-01-27T15:56:06.620Z,1.00
2023-01-27T15:58:39.679Z,1.00
2023-01-27T16:01:22.857Z,1.10
2023-01-27T16:03:51.457Z,1.20
2023-01-27T16:06:24.283Z,1.30
2023-01-27T16:09:00.108Z,1.33
2023-01-27T16:11:29.971Z,1.53
2023-01-27T16:14:37.160Z,2.50
2023-01-27T16:17:07.135Z,3.60
2023-01-27T16:19:44.724Z,2.80
2023-01-27T16:22:15.242Z,2.57
2023-01-27T16:24:58.541Z,3.07
2023-01-27T16:27:48.359Z,1.30
2023-01-27T16:30:37.270Z,1.40
2023-01-27T16:33:12.230Z,1.20
2023-01-27T16:35:46.086Z,1.13
2023-01-27T16:38:33.503Z,2.00
2023-01-27T16:41:18.606Z,3.67
2023-01-27T16:43:49.796Z,2.60
2023-01-27T16:46:30.524Z,2.20
2023-01-27T16:48:57.887Z,7.63
2023-01-27T16:51:28.162Z,3.30
2023-01-27T16:53:58.045Z,3.13
2023-01-27T16:56:33.720Z,1.97
2023-01-27T16:59:10.188Z,2.43
2023-01-27T17:01:45.844Z,2.10
2023-01-27T17:04:32.541Z,2.00
2023-01-27T17:07:22.769Z,2.30
2023-01-27T17:09:58.479Z,1.97
2023-01-27T17:12:29.163Z,2.07
2023-01-27T17:14:58.580Z,1.90
2023-01-27T17:17:28.465Z,2.20
2023-01-27T17:20:06.227Z,1.30
2023-01-27T17:22:44.894Z,1.60
2023-01-27T17:25:37.466Z,1.70
2023-01-27T17:28:13.126Z,1.80
2023-01-27T17:30:42.144Z,2.90
2023-01-27T17:33:24.085Z,2.50
2023-01-27T17:36:02.791Z,4.20
2023-01-27T17:39:07.939Z,4.67
2023-01-27T17:41:39.012Z,3.83
2023-01-27T17:44:12.347Z,2.00
2023-01-27T17:46:39.709Z,1.53
2023-01-27T17:49:16.824Z,1.20
2023-01-27T17:51:46.585Z,1.00
2023-01-27T17:54:24.936Z,0.90
2023-01-27T17:57:02.017Z,1.00
2023-01-27T17:59:29.400Z,0.80
2023-01-27T18:02:01.257Z,0.90
2023-01-27T18:04:37.834Z,1.20
2023-01-27T18:07:04.996Z,3.53
2023-01-27T18:09:34.906Z,3.50
2023-01-27T18:12:04.569Z,2.77
2023-01-27T18:14:34.239Z,1.70
2023-01-27T18:17:23.028Z,1.30
2023-01-27T18:19:51.500Z,3.10
2023-01-27T18:22:19.402Z,2.37
2023-01-27T18:25:05.856Z,10.87
2023-01-27T18:27:37.790Z,1.43
2023-01-27T18:30:16.061Z,1.90
2023-01-27T18:32:45.487Z,3.03
2023-01-27T18:35:27.572Z,1.43
2023-01-27T18:38:01.465Z,1.00
2023-01-27T18:40:33.684Z,1.10
2023-01-27T18:43:03.112Z,0.90
2023-01-27T18:45:30.731Z,1.50
2023-01-27T18:47:59.342Z,1.20
2023-01-27T18:50:27.136Z,0.90
2023-01-27T18:52:54.570Z,1.33
2023-01-27T18:55:27.095Z,1.13
2023-01-27T18:57:59.557Z,0.97
2023-01-27T19:00:35.854Z,1.00
2023-01-27T19:03:04.616Z,1.90
2023-01-27T19:05:33.918Z,1.40
2023-01-27T19:08:02.173Z,1.47
2023-01-27T19:10:35.462Z,1.70
2023-01-27T19:13:03.976Z,1.40
2023-01-27T19:15:37.525Z,1.10
2023-01-27T19:18:15.213Z,0.80
2023-01-27T19:20:42.240Z,0.83
2023-01-27T19:23:16.866Z,1.00
2023-01-27T19:25:47.305Z,0.70
2023-01-27T19:28:23.229Z,0.80
2023-01-27T19:30:50.163Z,0.80
2023-01-27T19:33:21.772Z,1.03
2023-01-27T19:35:57.344Z,0.83
2023-01-27T19:38:29.200Z,1.30
2023-01-27T19:40:56.554Z,1.70
2023-01-27T19:43:23.553Z,1.47
2023-01-27T19:45:51.813Z,1.90
2023-01-27T19:48:21.286Z,2.07
2023-01-27T19:50:49.773Z,1.63
2023-01-27T19:53:18.977Z,2.00
2023-01-27T19:55:49.760Z,2.13
2023-01-27T19:58:24.943Z,1.93
2023-01-27T20:00:53.305Z,1.83
2023-01-27T20:03:21.066Z,1.67
2023-01-27T20:05:48.573Z,1.60
2023-01-27T20:08:18.924Z,2.23
2023-01-27T20:10:46.263Z,2.00
2023-01-27T20:13:16.186Z,2.17
2023-01-27T20:15:43.444Z,2.07
2023-01-27T20:18:18.319Z,1.87
2023-01-27T20:20:46.619Z,1.73
2023-01-27T20:23:17.131Z,1.90
2023-01-27T20:25:44.059Z,2.07
2023-01-27T20:28:12.691Z,2.10
2023-01-27T20:30:42.057Z,2.40
2023-01-27T20:33:10.098Z,2.57
2023-01-27T20:35:37.664Z,2.00
2023-01-27T20:38:04.746Z,2.57
2023-01-27T20:40:31.637Z,2.73
2023-01-27T20:43:00.643Z,2.90
2023-01-27T20:45:27.707Z,2.30
2023-01-27T20:47:55.933Z,2.00
2023-01-27T20:50:25.687Z,3.07
2023-01-27T20:52:53.358Z,2.07
2023-01-27T20:55:20.499Z,2.73
2023-01-27T20:57:48.328Z,2.20
2023-01-27T21:00:17.766Z,1.70
2023-01-27T21:02:44.984Z,1.70
2023-01-27T21:05:12.897Z,1.40
2023-01-27T21:07:40.129Z,1.47
2023-01-27T21:10:07.696Z,1.70
2023-01-27T21:12:34.995Z,3.60
2023-01-27T21:15:01.977Z,3.03
2023-01-27T21:17:28.938Z,2.00
2023-01-27T21:19:55.872Z,1.60
2023-01-27T21:22:23.017Z,1.50
2023-01-27T21:24:49.961Z,1.47
2023-01-27T21:27:17.020Z,1.53
2023-01-27T21:29:44.007Z,1.57
2023-01-27T21:32:10.939Z,1.50
2023-01-27T21:34:37.879Z,1.40
2023-01-27T21:37:04.834Z,1.50
2023-01-27T21:39:31.751Z,1.70
2023-01-27T21:41:58.695Z,1.70
2023-01-27T21:44:47.471Z,1.30
2023-01-27T21:47:19.412Z,1.30
2023-01-27T21:50:03.143Z,1.40
2023-01-27T21:52:36.615Z,1.30
2023-01-27T21:55:06.480Z,1.10
2023-01-27T21:57:34.377Z,1.30
2023-01-27T22:00:01.442Z,1.20
2023-01-27T22:02:29.425Z,1.30
2023-01-27T22:04:56.522Z,1.40
2023-01-27T22:07:24.017Z,1.40
2023-01-27T22:09:50.907Z,1.43
2023-01-27T22:12:22.693Z,1.40
2023-01-27T22:14:49.608Z,1.03
2023-01-27T22:17:18.972Z,1.10
2023-01-27T22:19:46.862Z,1.00
2023-01-27T22:22:13.919Z,1.27
2023-01-27T22:24:41.127Z,1.30
2023-01-27T22:27:08.066Z,1.00
2023-01-27T22:29:35.025Z,1.00
2023-01-27T22:32:02.153Z,1.13
2023-01-27T22:34:32.071Z,1.00
2023-01-27T22:36:59.002Z,1.00
2023-01-27T22:39:25.952Z,1.10
2023-01-27T22:41:52.894Z,1.13
2023-01-27T22:44:20.870Z,1.07
2023-01-27T22:46:49.559Z,1.00
2023-01-27T22:49:17.159Z,0.90
2023-01-27T22:51:44.293Z,0.80
2023-01-27T22:54:11.234Z,1.00
2023-01-27T22:56:38.353Z,1.50
2023-01-27T22:59:05.400Z,1.47
2023-01-27T23:01:32.620Z,1.30
2023-01-27T23:03:59.801Z,1.50
2023-01-27T23:06:26.777Z,1.80
2023-01-27T23:08:53.868Z,1.87
2023-01-27T23:11:20.829Z,2.40
2023-01-27T23:13:47.812Z,2.00
2023-01-27T23:16:15.083Z,1.70
2023-01-27T23:18:42.225Z,1.77
2023-01-27T23:21:09.261Z,1.40
2023-01-27T23:23:36.304Z,1.60
2023-01-27T23:26:09.464Z,1.50
2023-01-27T23:28:39.919Z,1.90
2023-01-27T23:31:11.380Z,1.77
2023-01-27T23:33:40.325Z,1.30
2023-01-27T23:36:08.954Z,1.30
2023-01-27T23:38:36.640Z,1.50
2023-01-27T23:41:06.537Z,1.23
2023-01-27T23:43:34.036Z,1.10
2023-01-27T23:46:01.043Z,1.30
2023-01-27T23:48:28.392Z,1.10
2023-01-27T23:50:55.478Z,1.00
2023-01-27T23:53:22.684Z,0.93
2023-01-27T23:55:57.559Z,0.87
2023-01-27T23:58:25.480Z,1.20
